sensor_id;sensor_type;location;lat;lon;timestamp;P1;durP1;ratioP1;P2;durP2;ratioP2
30892;SDS011;17595;50.884;4.346;2022-12-19T00:00:19;25.17;;;13.30;;
30892;SDS011;17595;50.884;4.346;2022-12-19T00:02:46;23.73;;;12.73;;
30892;SDS011;17595;50.884;4.346;2022-12-19T00:05:11;25.35;;;13.40;;
30892;SDS011;17595;50.884;4.346;2022-12-19T00:07:37;22.85;;;12.68;;
30892;SDS011;17595;50.884;4.346;2022-12-19T00:10:04;26.83;;;12.48;;
30892;SDS011;17595;50.884;4.346;2022-12-19T00:12:30;21.30;;;12.35;;
30892;SDS011;17595;50.884;4.346;2022-12-19T00:14:55;24.50;;;12.63;;
30892;SDS011;17595;50.884;4.346;2022-12-19T00:17:21;22.35;;;12.05;;
30892;SDS011;17595;50.884;4.346;2022-12-19T00:19:47;26.45;;;12.73;;
30892;SDS011;17595;50.884;4.346;2022-12-19T00:22:13;22.55;;;12.13;;
30892;SDS011;17595;50.884;4.346;2022-12-19T00:24:38;25.25;;;12.73;;
30892;SDS011;17595;50.884;4.346;2022-12-19T00:27:04;23.67;;;13.18;;
30892;SDS011;17595;50.884;4.346;2022-12-19T00:29:30;21.60;;;12.27;;
30892;SDS011;17595;50.884;4.346;2022-12-19T00:31:56;21.42;;;13.18;;
30892;SDS011;17595;50.884;4.346;2022-12-19T00:34:22;23.58;;;12.95;;
30892;SDS011;17595;50.884;4.346;2022-12-19T00:36:48;20.63;;;11.82;;
30892;SDS011;17595;50.884;4.346;2022-12-19T00:39:13;23.95;;;12.48;;
30892;SDS011;17595;50.884;4.346;2022-12-19T00:41:39;21.58;;;12.02;;
30892;SDS011;17595;50.884;4.346;2022-12-19T00:44:07;24.05;;;13.07;;
30892;SDS011;17595;50.884;4.346;2022-12-19T00:46:35;21.75;;;12.13;;
30892;SDS011;17595;50.884;4.346;2022-12-19T00:49:01;25.00;;;12.85;;
30892;SDS011;17595;50.884;4.346;2022-12-19T00:51:29;22.42;;;12.27;;
30892;SDS011;17595;50.884;4.346;2022-12-19T00:53:56;20.77;;;11.97;;
30892;SDS011;17595;50.884;4.346;2022-12-19T00:56:23;22.52;;;11.90;;
30892;SDS011;17595;50.884;4.346;2022-12-19T00:58:51;20.88;;;11.95;;
30892;SDS011;17595;50.884;4.346;2022-12-19T01:01:18;24.55;;;12.35;;
30892;SDS011;17595;50.884;4.346;2022-12-19T01:03:46;23.08;;;12.07;;
30892;SDS011;17595;50.884;4.346;2022-12-19T01:06:13;24.35;;;12.70;;
30892;SDS011;17595;50.884;4.346;2022-12-19T01:08:39;23.38;;;12.55;;
30892;SDS011;17595;50.884;4.346;2022-12-19T01:11:05;22.15;;;12.30;;
30892;SDS011;17595;50.884;4.346;2022-12-19T01:13:32;18.83;;;10.98;;
30892;SDS011;17595;50.884;4.346;2022-12-19T01:16:03;19.90;;;11.00;;
30892;SDS011;17595;50.884;4.346;2022-12-19T01:18:29;20.85;;;11.82;;
30892;SDS011;17595;50.884;4.346;2022-12-19T01:20:57;21.02;;;11.00;;
30892;SDS011;17595;50.884;4.346;2022-12-19T01:23:24;18.85;;;11.55;;
30892;SDS011;17595;50.884;4.346;2022-12-19T01:25:51;19.30;;;10.95;;
30892;SDS011;17595;50.884;4.346;2022-12-19T01:28:18;17.97;;;10.90;;
30892;SDS011;17595;50.884;4.346;2022-12-19T01:30:44;19.42;;;11.43;;
30892;SDS011;17595;50.884;4.346;2022-12-19T01:33:10;18.90;;;10.77;;
30892;SDS011;17595;50.884;4.346;2022-12-19T01:35:37;20.17;;;10.07;;
30892;SDS011;17595;50.884;4.346;2022-12-19T01:38:03;19.75;;;10.05;;
30892;SDS011;17595;50.884;4.346;2022-12-19T01:40:29;18.42;;;10.00;;
30892;SDS011;17595;50.884;4.346;2022-12-19T01:42:56;15.80;;;8.85;;
30892;SDS011;17595;50.884;4.346;2022-12-19T01:50:36;15.63;;;9.27;;
30892;SDS011;17595;50.884;4.346;2022-12-19T01:53:08;17.00;;;8.65;;
30892;SDS011;17595;50.884;4.346;2022-12-19T01:55:36;16.10;;;8.60;;
30892;SDS011;17595;50.884;4.346;2022-12-19T01:58:03;14.65;;;8.43;;
30892;SDS011;17595;50.884;4.346;2022-12-19T02:00:29;16.02;;;8.95;;
30892;SDS011;17595;50.884;4.346;2022-12-19T02:02:57;15.02;;;8.30;;
30892;SDS011;17595;50.884;4.346;2022-12-19T02:05:33;14.55;;;8.75;;
30892;SDS011;17595;50.884;4.346;2022-12-19T02:07:59;15.65;;;9.80;;
30892;SDS011;17595;50.884;4.346;2022-12-19T02:10:25;13.02;;;8.23;;
30892;SDS011;17595;50.884;4.346;2022-12-19T02:12:51;14.65;;;8.20;;
30892;SDS011;17595;50.884;4.346;2022-12-19T02:15:17;15.15;;;8.75;;
30892;SDS011;17595;50.884;4.346;2022-12-19T02:22:11;13.55;;;8.27;;
30892;SDS011;17595;50.884;4.346;2022-12-19T02:29:40;13.15;;;8.55;;
30892;SDS011;17595;50.884;4.346;2022-12-19T02:32:24;12.98;;;8.63;;
30892;SDS011;17595;50.884;4.346;2022-12-19T02:35:06;17.23;;;8.30;;
30892;SDS011;17595;50.884;4.346;2022-12-19T02:37:47;14.05;;;8.32;;
30892;SDS011;17595;50.884;4.346;2022-12-19T02:40:21;13.52;;;8.77;;
30892;SDS011;17595;50.884;4.346;2022-12-19T02:42:53;11.90;;;7.22;;
30892;SDS011;17595;50.884;4.346;2022-12-19T02:45:28;18.88;;;9.75;;
30892;SDS011;17595;50.884;4.346;2022-12-19T02:48:00;12.48;;;8.27;;
30892;SDS011;17595;50.884;4.346;2022-12-19T02:50:37;14.60;;;7.97;;
30892;SDS011;17595;50.884;4.346;2022-12-19T02:53:04;13.13;;;8.27;;
30892;SDS011;17595;50.884;4.346;2022-12-19T02:55:30;14.55;;;8.23;;
30892;SDS011;17595;50.884;4.346;2022-12-19T02:58:19;13.23;;;8.05;;
30892;SDS011;17595;50.884;4.346;2022-12-19T03:03:28;11.90;;;7.47;;
30892;SDS011;17595;50.884;4.346;2022-12-19T03:06:03;12.25;;;7.75;;
30892;SDS011;17595;50.884;4.346;2022-12-19T03:11:16;17.27;;;8.65;;
30892;SDS011;17595;50.884;4.346;2022-12-19T03:16:26;14.10;;;8.77;;
30892;SDS011;17595;50.884;4.346;2022-12-19T03:18:52;15.38;;;8.20;;
30892;SDS011;17595;50.884;4.346;2022-12-19T03:21:51;14.00;;;8.23;;
30892;SDS011;17595;50.884;4.346;2022-12-19T03:24:12;15.30;;;9.05;;
30892;SDS011;17595;50.884;4.346;2022-12-19T03:26:52;13.07;;;8.77;;
30892;SDS011;17595;50.884;4.346;2022-12-19T03:29:29;14.80;;;9.00;;
30892;SDS011;17595;50.884;4.346;2022-12-19T03:32:06;13.77;;;8.57;;
30892;SDS011;17595;50.884;4.346;2022-12-19T03:37:18;15.05;;;8.57;;
30892;SDS011;17595;50.884;4.346;2022-12-19T03:42:51;12.27;;;8.38;;
30892;SDS011;17595;50.884;4.346;2022-12-19T03:48:35;13.15;;;9.00;;
30892;SDS011;17595;50.884;4.346;2022-12-19T03:53:54;14.45;;;7.88;;
30892;SDS011;17595;50.884;4.346;2022-12-19T03:56:44;12.30;;;9.00;;
30892;SDS011;17595;50.884;4.346;2022-12-19T04:02:14;11.30;;;7.70;;
30892;SDS011;17595;50.884;4.346;2022-12-19T04:04:46;14.27;;;8.33;;
30892;SDS011;17595;50.884;4.346;2022-12-19T04:07:16;11.10;;;7.70;;
30892;SDS011;17595;50.884;4.346;2022-12-19T04:09:42;11.02;;;7.20;;
30892;SDS011;17595;50.884;4.346;2022-12-19T04:12:11;9.45;;;7.35;;
30892;SDS011;17595;50.884;4.346;2022-12-19T04:14:41;9.68;;;7.30;;
30892;SDS011;17595;50.884;4.346;2022-12-19T04:17:25;13.73;;;7.90;;
30892;SDS011;17595;50.884;4.346;2022-12-19T04:25:14;9.02;;;6.75;;
30892;SDS011;17595;50.884;4.346;2022-12-19T04:27:47;10.82;;;7.03;;
30892;SDS011;17595;50.884;4.346;2022-12-19T04:30:16;11.05;;;7.50;;
30892;SDS011;17595;50.884;4.346;2022-12-19T04:32:43;12.05;;;7.10;;
30892;SDS011;17595;50.884;4.346;2022-12-19T04:35:09;10.90;;;6.82;;
30892;SDS011;17595;50.884;4.346;2022-12-19T04:37:35;9.93;;;6.50;;
30892;SDS011;17595;50.884;4.346;2022-12-19T04:40:01;11.00;;;7.38;;
30892;SDS011;17595;50.884;4.346;2022-12-19T04:42:28;9.90;;;6.93;;
30892;SDS011;17595;50.884;4.346;2022-12-19T04:44:53;11.55;;;7.05;;
30892;SDS011;17595;50.884;4.346;2022-12-19T04:47:19;12.68;;;7.80;;
30892;SDS011;17595;50.884;4.346;2022-12-19T04:49:44;15.05;;;7.55;;
30892;SDS011;17595;50.884;4.346;2022-12-19T04:52:10;11.13;;;7.15;;
30892;SDS011;17595;50.884;4.346;2022-12-19T04:54:36;11.48;;;6.53;;
30892;SDS011;17595;50.884;4.346;2022-12-19T04:57:01;15.52;;;6.80;;
30892;SDS011;17595;50.884;4.346;2022-12-19T04:59:27;10.40;;;7.70;;
30892;SDS011;17595;50.884;4.346;2022-12-19T05:01:52;10.95;;;7.85;;
30892;SDS011;17595;50.884;4.346;2022-12-19T05:04:18;11.23;;;7.25;;
30892;SDS011;17595;50.884;4.346;2022-12-19T05:06:44;11.30;;;6.82;;
30892;SDS011;17595;50.884;4.346;2022-12-19T05:09:09;10.30;;;6.78;;
30892;SDS011;17595;50.884;4.346;2022-12-19T05:11:35;7.75;;;5.93;;
30892;SDS011;17595;50.884;4.346;2022-12-19T05:14:01;11.50;;;7.00;;
30892;SDS011;17595;50.884;4.346;2022-12-19T05:16:27;10.10;;;7.22;;
30892;SDS011;17595;50.884;4.346;2022-12-19T05:18:53;9.90;;;6.22;;
30892;SDS011;17595;50.884;4.346;2022-12-19T05:21:19;8.65;;;6.28;;
30892;SDS011;17595;50.884;4.346;2022-12-19T05:23:46;9.38;;;6.68;;
30892;SDS011;17595;50.884;4.346;2022-12-19T05:26:11;12.68;;;7.03;;
30892;SDS011;17595;50.884;4.346;2022-12-19T05:28:38;9.18;;;6.90;;
30892;SDS011;17595;50.884;4.346;2022-12-19T05:31:05;10.23;;;6.68;;
30892;SDS011;17595;50.884;4.346;2022-12-19T05:33:33;8.38;;;6.03;;
30892;SDS011;17595;50.884;4.346;2022-12-19T05:35:59;9.50;;;6.65;;
30892;SDS011;17595;50.884;4.346;2022-12-19T05:38:25;11.00;;;7.07;;
30892;SDS011;17595;50.884;4.346;2022-12-19T05:40:53;7.50;;;6.32;;
30892;SDS011;17595;50.884;4.346;2022-12-19T05:43:19;9.63;;;6.55;;
30892;SDS011;17595;50.884;4.346;2022-12-19T05:45:45;12.50;;;6.50;;
30892;SDS011;17595;50.884;4.346;2022-12-19T05:48:10;9.25;;;6.93;;
30892;SDS011;17595;50.884;4.346;2022-12-19T05:50:37;10.98;;;6.72;;
30892;SDS011;17595;50.884;4.346;2022-12-19T05:53:03;12.55;;;6.28;;
30892;SDS011;17595;50.884;4.346;2022-12-19T05:55:29;8.02;;;5.80;;
30892;SDS011;17595;50.884;4.346;2022-12-19T05:57:54;7.43;;;6.10;;
30892;SDS011;17595;50.884;4.346;2022-12-19T06:00:20;11.85;;;5.72;;
30892;SDS011;17595;50.884;4.346;2022-12-19T06:02:46;9.35;;;6.53;;
30892;SDS011;17595;50.884;4.346;2022-12-19T06:05:12;10.85;;;5.97;;
30892;SDS011;17595;50.884;4.346;2022-12-19T06:07:37;11.30;;;6.18;;
30892;SDS011;17595;50.884;4.346;2022-12-19T06:10:03;12.18;;;6.35;;
30892;SDS011;17595;50.884;4.346;2022-12-19T06:12:30;8.18;;;5.72;;
30892;SDS011;17595;50.884;4.346;2022-12-19T06:14:55;8.75;;;6.05;;
30892;SDS011;17595;50.884;4.346;2022-12-19T06:17:22;9.25;;;6.90;;
30892;SDS011;17595;50.884;4.346;2022-12-19T06:19:48;8.48;;;5.93;;
30892;SDS011;17595;50.884;4.346;2022-12-19T06:22:13;9.32;;;5.85;;
30892;SDS011;17595;50.884;4.346;2022-12-19T06:24:39;8.52;;;5.70;;
30892;SDS011;17595;50.884;4.346;2022-12-19T06:27:04;11.55;;;5.95;;
30892;SDS011;17595;50.884;4.346;2022-12-19T06:29:30;8.43;;;6.10;;
30892;SDS011;17595;50.884;4.346;2022-12-19T06:31:55;8.35;;;6.35;;
30892;SDS011;17595;50.884;4.346;2022-12-19T06:34:21;12.30;;;6.00;;
30892;SDS011;17595;50.884;4.346;2022-12-19T06:36:47;8.82;;;6.43;;
30892;SDS011;17595;50.884;4.346;2022-12-19T06:39:13;11.05;;;5.85;;
30892;SDS011;17595;50.884;4.346;2022-12-19T06:41:39;10.35;;;5.82;;
30892;SDS011;17595;50.884;4.346;2022-12-19T06:44:24;10.40;;;5.68;;
30892;SDS011;17595;50.884;4.346;2022-12-19T06:46:50;8.20;;;5.05;;
30892;SDS011;17595;50.884;4.346;2022-12-19T06:49:18;6.40;;;5.28;;
30892;SDS011;17595;50.884;4.346;2022-12-19T06:51:44;10.68;;;5.82;;
30892;SDS011;17595;50.884;4.346;2022-12-19T06:54:10;6.80;;;4.90;;
30892;SDS011;17595;50.884;4.346;2022-12-19T06:56:37;9.05;;;5.95;;
30892;SDS011;17595;50.884;4.346;2022-12-19T06:59:04;12.65;;;5.72;;
30892;SDS011;17595;50.884;4.346;2022-12-19T07:04:07;7.57;;;5.22;;
30892;SDS011;17595;50.884;4.346;2022-12-19T07:06:36;8.13;;;5.37;;
30892;SDS011;17595;50.884;4.346;2022-12-19T07:09:02;8.10;;;5.72;;
30892;SDS011;17595;50.884;4.346;2022-12-19T07:11:29;9.07;;;5.53;;
30892;SDS011;17595;50.884;4.346;2022-12-19T07:13:54;10.68;;;5.93;;
30892;SDS011;17595;50.884;4.346;2022-12-19T07:16:20;8.88;;;5.38;;
30892;SDS011;17595;50.884;4.346;2022-12-19T07:18:46;6.32;;;5.03;;
30892;SDS011;17595;50.884;4.346;2022-12-19T07:21:11;9.80;;;6.00;;
30892;SDS011;17595;50.884;4.346;2022-12-19T07:23:37;7.55;;;5.10;;
30892;SDS011;17595;50.884;4.346;2022-12-19T07:26:03;10.50;;;4.93;;
30892;SDS011;17595;50.884;4.346;2022-12-19T07:28:29;7.45;;;5.20;;
30892;SDS011;17595;50.884;4.346;2022-12-19T07:30:57;9.65;;;5.40;;
30892;SDS011;17595;50.884;4.346;2022-12-19T07:33:22;8.80;;;5.70;;
30892;SDS011;17595;50.884;4.346;2022-12-19T07:35:48;7.80;;;5.63;;
30892;SDS011;17595;50.884;4.346;2022-12-19T07:38:13;9.52;;;6.38;;
30892;SDS011;17595;50.884;4.346;2022-12-19T07:40:39;7.38;;;5.32;;
30892;SDS011;17595;50.884;4.346;2022-12-19T07:43:05;6.35;;;5.30;;
30892;SDS011;17595;50.884;4.346;2022-12-19T07:45:31;8.63;;;5.28;;
30892;SDS011;17595;50.884;4.346;2022-12-19T07:48:00;7.32;;;4.93;;
30892;SDS011;17595;50.884;4.346;2022-12-19T07:50:27;7.22;;;5.07;;
30892;SDS011;17595;50.884;4.346;2022-12-19T07:52:53;6.25;;;4.93;;
30892;SDS011;17595;50.884;4.346;2022-12-19T07:55:19;6.88;;;5.05;;
30892;SDS011;17595;50.884;4.346;2022-12-19T07:57:44;7.63;;;5.05;;
30892;SDS011;17595;50.884;4.346;2022-12-19T08:00:10;10.07;;;5.50;;
30892;SDS011;17595;50.884;4.346;2022-12-19T08:02:36;7.30;;;5.25;;
30892;SDS011;17595;50.884;4.346;2022-12-19T08:05:02;7.85;;;4.68;;
30892;SDS011;17595;50.884;4.346;2022-12-19T08:07:29;8.63;;;5.25;;
30892;SDS011;17595;50.884;4.346;2022-12-19T08:09:55;6.55;;;4.68;;
30892;SDS011;17595;50.884;4.346;2022-12-19T08:12:20;13.38;;;5.15;;
30892;SDS011;17595;50.884;4.346;2022-12-19T08:14:46;9.20;;;4.93;;
30892;SDS011;17595;50.884;4.346;2022-12-19T08:17:12;9.05;;;4.97;;
30892;SDS011;17595;50.884;4.346;2022-12-19T08:19:38;10.13;;;4.80;;
30892;SDS011;17595;50.884;4.346;2022-12-19T08:22:03;7.68;;;5.10;;
30892;SDS011;17595;50.884;4.346;2022-12-19T08:24:29;8.48;;;4.88;;
30892;SDS011;17595;50.884;4.346;2022-12-19T08:26:55;6.40;;;4.40;;
30892;SDS011;17595;50.884;4.346;2022-12-19T08:29:21;6.28;;;4.20;;
30892;SDS011;17595;50.884;4.346;2022-12-19T08:31:47;8.27;;;4.90;;
30892;SDS011;17595;50.884;4.346;2022-12-19T08:34:12;5.60;;;4.47;;
30892;SDS011;17595;50.884;4.346;2022-12-19T08:36:38;5.65;;;4.15;;
30892;SDS011;17595;50.884;4.346;2022-12-19T08:39:04;5.80;;;4.63;;
30892;SDS011;17595;50.884;4.346;2022-12-19T08:41:30;7.35;;;4.68;;
30892;SDS011;17595;50.884;4.346;2022-12-19T08:43:55;6.30;;;4.70;;
30892;SDS011;17595;50.884;4.346;2022-12-19T08:46:21;5.85;;;4.40;;
30892;SDS011;17595;50.884;4.346;2022-12-19T08:48:47;4.88;;;4.35;;
30892;SDS011;17595;50.884;4.346;2022-12-19T08:51:13;11.85;;;5.13;;
30892;SDS011;17595;50.884;4.346;2022-12-19T08:53:39;8.05;;;4.80;;
30892;SDS011;17595;50.884;4.346;2022-12-19T08:56:07;9.20;;;4.35;;
30892;SDS011;17595;50.884;4.346;2022-12-19T08:58:36;7.43;;;4.07;;
30892;SDS011;17595;50.884;4.346;2022-12-19T09:01:02;7.05;;;4.18;;
30892;SDS011;17595;50.884;4.346;2022-12-19T09:03:30;5.40;;;4.38;;
30892;SDS011;17595;50.884;4.346;2022-12-19T09:05:57;4.95;;;4.05;;
30892;SDS011;17595;50.884;4.346;2022-12-19T09:08:23;8.18;;;3.88;;
30892;SDS011;17595;50.884;4.346;2022-12-19T09:10:50;5.05;;;3.78;;
30892;SDS011;17595;50.884;4.346;2022-12-19T09:13:21;5.00;;;3.63;;
30892;SDS011;17595;50.884;4.346;2022-12-19T09:15:47;6.00;;;4.07;;
30892;SDS011;17595;50.884;4.346;2022-12-19T09:18:12;4.25;;;3.65;;
30892;SDS011;17595;50.884;4.346;2022-12-19T09:20:38;8.45;;;3.85;;
30892;SDS011;17595;50.884;4.346;2022-12-19T09:23:03;5.15;;;3.95;;
30892;SDS011;17595;50.884;4.346;2022-12-19T09:25:29;5.47;;;4.28;;
30892;SDS011;17595;50.884;4.346;2022-12-19T09:27:55;7.05;;;4.20;;
30892;SDS011;17595;50.884;4.346;2022-12-19T09:30:20;6.68;;;4.13;;
30892;SDS011;17595;50.884;4.346;2022-12-19T09:32:46;5.53;;;3.88;;
30892;SDS011;17595;50.884;4.346;2022-12-19T09:35:11;6.20;;;4.30;;
30892;SDS011;17595;50.884;4.346;2022-12-19T09:37:37;7.20;;;3.90;;
30892;SDS011;17595;50.884;4.346;2022-12-19T09:40:03;10.02;;;4.70;;
30892;SDS011;17595;50.884;4.346;2022-12-19T09:42:45;9.02;;;4.72;;
30892;SDS011;17595;50.884;4.346;2022-12-19T09:47:54;6.57;;;3.95;;
30892;SDS011;17595;50.884;4.346;2022-12-19T09:52:49;7.18;;;4.57;;
30892;SDS011;17595;50.884;4.346;2022-12-19T09:55:27;6.93;;;4.13;;
30892;SDS011;17595;50.884;4.346;2022-12-19T09:58:03;5.57;;;4.13;;
30892;SDS011;17595;50.884;4.346;2022-12-19T10:00:34;7.05;;;4.65;;
30892;SDS011;17595;50.884;4.346;2022-12-19T10:05:39;10.15;;;5.10;;
30892;SDS011;17595;50.884;4.346;2022-12-19T10:08:14;6.82;;;4.90;;
30892;SDS011;17595;50.884;4.346;2022-12-19T10:10:49;6.70;;;4.30;;
30892;SDS011;17595;50.884;4.346;2022-12-19T10:19:00;9.48;;;4.72;;
30892;SDS011;17595;50.884;4.346;2022-12-19T10:21:38;6.72;;;4.90;;
30892;SDS011;17595;50.884;4.346;2022-12-19T10:27:24;8.43;;;4.30;;
30892;SDS011;17595;50.884;4.346;2022-12-19T10:32:41;8.25;;;3.83;;
30892;SDS011;17595;50.884;4.346;2022-12-19T10:35:10;7.30;;;4.07;;
30892;SDS011;17595;50.884;4.346;2022-12-19T10:37:52;6.78;;;4.07;;
30892;SDS011;17595;50.884;4.346;2022-12-19T10:40:39;8.20;;;4.40;;
30892;SDS011;17595;50.884;4.346;2022-12-19T10:43:19;7.32;;;3.80;;
30892;SDS011;17595;50.884;4.346;2022-12-19T10:46:13;6.18;;;3.60;;
30892;SDS011;17595;50.884;4.346;2022-12-19T10:48:43;5.38;;;3.80;;
30892;SDS011;17595;50.884;4.346;2022-12-19T10:51:12;6.97;;;4.50;;
30892;SDS011;17595;50.884;4.346;2022-12-19T10:53:57;6.60;;;3.95;;
30892;SDS011;17595;50.884;4.346;2022-12-19T10:56:26;7.97;;;3.92;;
30892;SDS011;17595;50.884;4.346;2022-12-19T10:58:54;6.05;;;4.25;;
30892;SDS011;17595;50.884;4.346;2022-12-19T11:04:10;6.25;;;3.30;;
30892;SDS011;17595;50.884;4.346;2022-12-19T11:07:04;7.35;;;2.88;;
30892;SDS011;17595;50.884;4.346;2022-12-19T11:09:40;7.75;;;3.25;;
30892;SDS011;17595;50.884;4.346;2022-12-19T11:14:35;5.60;;;3.13;;
30892;SDS011;17595;50.884;4.346;2022-12-19T11:17:03;6.32;;;3.40;;
30892;SDS011;17595;50.884;4.346;2022-12-19T11:19:32;5.18;;;3.38;;
30892;SDS011;17595;50.884;4.346;2022-12-19T11:22:00;7.63;;;4.20;;
30892;SDS011;17595;50.884;4.346;2022-12-19T11:24:35;7.57;;;3.63;;
30892;SDS011;17595;50.884;4.346;2022-12-19T11:27:27;8.73;;;3.15;;
30892;SDS011;17595;50.884;4.346;2022-12-19T11:30:05;3.85;;;2.83;;
30892;SDS011;17595;50.884;4.346;2022-12-19T11:32:42;5.15;;;3.10;;
30892;SDS011;17595;50.884;4.346;2022-12-19T11:35:20;3.72;;;2.60;;
30892;SDS011;17595;50.884;4.346;2022-12-19T11:37:57;4.13;;;2.70;;
30892;SDS011;17595;50.884;4.346;2022-12-19T11:49:00;8.07;;;3.83;;
30892;SDS011;17595;50.884;4.346;2022-12-19T11:54:35;4.22;;;3.08;;
30892;SDS011;17595;50.884;4.346;2022-12-19T11:57:18;5.03;;;3.10;;
30892;SDS011;17595;50.884;4.346;2022-12-19T11:59:44;6.38;;;2.90;;
30892;SDS011;17595;50.884;4.346;2022-12-19T12:05:20;3.90;;;2.50;;
30892;SDS011;17595;50.884;4.346;2022-12-19T12:10:27;6.20;;;3.42;;
30892;SDS011;17595;50.884;4.346;2022-12-19T12:23:43;6.78;;;3.17;;
30892;SDS011;17595;50.884;4.346;2022-12-19T12:26:32;5.15;;;3.08;;
30892;SDS011;17595;50.884;4.346;2022-12-19T12:31:58;5.90;;;3.20;;
30892;SDS011;17595;50.884;4.346;2022-12-19T12:45:33;5.80;;;2.75;;
30892;SDS011;17595;50.884;4.346;2022-12-19T12:48:09;4.30;;;2.97;;
30892;SDS011;17595;50.884;4.346;2022-12-19T12:50:48;5.00;;;2.70;;
30892;SDS011;17595;50.884;4.346;2022-12-19T12:53:17;5.30;;;2.72;;
30892;SDS011;17595;50.884;4.346;2022-12-19T12:55:46;7.65;;;3.55;;
30892;SDS011;17595;50.884;4.346;2022-12-19T13:03:50;4.57;;;2.90;;
30892;SDS011;17595;50.884;4.346;2022-12-19T13:06:26;7.00;;;2.22;;
30892;SDS011;17595;50.884;4.346;2022-12-19T13:11:43;5.78;;;2.85;;
30892;SDS011;17595;50.884;4.346;2022-12-19T13:16:59;6.75;;;2.88;;
30892;SDS011;17595;50.884;4.346;2022-12-19T13:19:32;5.00;;;3.13;;
30892;SDS011;17595;50.884;4.346;2022-12-19T13:24:42;5.43;;;3.13;;
30892;SDS011;17595;50.884;4.346;2022-12-19T13:32:34;6.68;;;2.72;;
30892;SDS011;17595;50.884;4.346;2022-12-19T13:38:14;7.65;;;2.92;;
30892;SDS011;17595;50.884;4.346;2022-12-19T13:40:53;5.45;;;3.03;;
30892;SDS011;17595;50.884;4.346;2022-12-19T13:43:30;7.55;;;2.88;;
30892;SDS011;17595;50.884;4.346;2022-12-19T13:48:51;3.78;;;2.60;;
30892;SDS011;17595;50.884;4.346;2022-12-19T13:51:20;4.10;;;2.58;;
30892;SDS011;17595;50.884;4.346;2022-12-19T13:53:50;2.85;;;2.38;;
30892;SDS011;17595;50.884;4.346;2022-12-19T13:56:17;7.20;;;3.70;;
30892;SDS011;17595;50.884;4.346;2022-12-19T14:01:22;5.43;;;2.72;;
30892;SDS011;17595;50.884;4.346;2022-12-19T14:03:52;7.03;;;3.22;;
30892;SDS011;17595;50.884;4.346;2022-12-19T14:06:26;3.47;;;2.60;;
30892;SDS011;17595;50.884;4.346;2022-12-19T14:08:57;3.55;;;2.42;;
30892;SDS011;17595;50.884;4.346;2022-12-19T14:11:29;3.92;;;2.50;;
30892;SDS011;17595;50.884;4.346;2022-12-19T14:13:58;6.88;;;2.60;;
30892;SDS011;17595;50.884;4.346;2022-12-19T14:16:44;5.65;;;2.70;;
30892;SDS011;17595;50.884;4.346;2022-12-19T14:21:44;5.90;;;2.97;;
30892;SDS011;17595;50.884;4.346;2022-12-19T14:26:56;3.80;;;3.00;;
30892;SDS011;17595;50.884;4.346;2022-12-19T14:29:31;8.10;;;3.22;;
30892;SDS011;17595;50.884;4.346;2022-12-19T14:32:00;3.97;;;3.05;;
30892;SDS011;17595;50.884;4.346;2022-12-19T14:34:27;5.97;;;2.92;;
30892;SDS011;17595;50.884;4.346;2022-12-19T14:36:57;4.97;;;3.20;;
30892;SDS011;17595;50.884;4.346;2022-12-19T14:39:24;3.78;;;2.63;;
30892;SDS011;17595;50.884;4.346;2022-12-19T14:42:01;4.28;;;2.88;;
30892;SDS011;17595;50.884;4.346;2022-12-19T14:50:01;4.38;;;2.88;;
30892;SDS011;17595;50.884;4.346;2022-12-19T14:52:46;6.65;;;2.50;;
30892;SDS011;17595;50.884;4.346;2022-12-19T14:55:13;6.38;;;3.00;;
30892;SDS011;17595;50.884;4.346;2022-12-19T14:57:45;6.13;;;2.95;;
30892;SDS011;17595;50.884;4.346;2022-12-19T15:00:26;5.30;;;2.80;;
30892;SDS011;17595;50.884;4.346;2022-12-19T15:02:52;5.18;;;2.88;;
30892;SDS011;17595;50.884;4.346;2022-12-19T15:05:19;5.00;;;2.75;;
30892;SDS011;17595;50.884;4.346;2022-12-19T15:07:47;3.50;;;2.70;;
30892;SDS011;17595;50.884;4.346;2022-12-19T15:12:55;4.18;;;2.78;;
30892;SDS011;17595;50.884;4.346;2022-12-19T15:18:26;5.47;;;3.33;;
30892;SDS011;17595;50.884;4.346;2022-12-19T15:21:06;10.40;;;2.80;;
30892;SDS011;17595;50.884;4.346;2022-12-19T15:23:36;4.88;;;2.60;;
30892;SDS011;17595;50.884;4.346;2022-12-19T15:26:03;5.03;;;3.00;;
30892;SDS011;17595;50.884;4.346;2022-12-19T15:36:39;4.43;;;2.47;;
30892;SDS011;17595;50.884;4.346;2022-12-19T15:39:05;5.00;;;2.78;;
30892;SDS011;17595;50.884;4.346;2022-12-19T15:41:30;5.25;;;2.90;;
30892;SDS011;17595;50.884;4.346;2022-12-19T15:43:56;5.95;;;3.00;;
30892;SDS011;17595;50.884;4.346;2022-12-19T15:46:23;6.93;;;2.75;;
30892;SDS011;17595;50.884;4.346;2022-12-19T15:48:54;4.10;;;2.75;;
30892;SDS011;17595;50.884;4.346;2022-12-19T15:51:19;6.50;;;3.17;;
30892;SDS011;17595;50.884;4.346;2022-12-19T15:53:45;5.20;;;2.80;;
30892;SDS011;17595;50.884;4.346;2022-12-19T15:56:18;5.47;;;3.35;;
30892;SDS011;17595;50.884;4.346;2022-12-19T15:58:56;5.60;;;2.85;;
30892;SDS011;17595;50.884;4.346;2022-12-19T16:01:23;5.97;;;3.17;;
30892;SDS011;17595;50.884;4.346;2022-12-19T16:03:50;7.05;;;3.45;;
30892;SDS011;17595;50.884;4.346;2022-12-19T16:06:16;5.20;;;3.00;;
30892;SDS011;17595;50.884;4.346;2022-12-19T16:08:42;6.57;;;3.33;;
30892;SDS011;17595;50.884;4.346;2022-12-19T16:11:13;7.35;;;3.90;;
30892;SDS011;17595;50.884;4.346;2022-12-19T16:13:42;5.10;;;4.03;;
30892;SDS011;17595;50.884;4.346;2022-12-19T16:16:11;7.95;;;5.63;;
30892;SDS011;17595;50.884;4.346;2022-12-19T16:18:36;8.40;;;5.13;;
30892;SDS011;17595;50.884;4.346;2022-12-19T16:21:02;10.00;;;5.57;;
30892;SDS011;17595;50.884;4.346;2022-12-19T16:23:28;6.38;;;4.47;;
30892;SDS011;17595;50.884;4.346;2022-12-19T16:25:53;7.85;;;4.43;;
30892;SDS011;17595;50.884;4.346;2022-12-19T16:33:25;6.40;;;3.58;;
30892;SDS011;17595;50.884;4.346;2022-12-19T16:35:53;7.57;;;4.25;;
30892;SDS011;17595;50.884;4.346;2022-12-19T16:38:22;10.00;;;4.93;;
30892;SDS011;17595;50.884;4.346;2022-12-19T16:40:49;7.13;;;4.32;;
30892;SDS011;17595;50.884;4.346;2022-12-19T16:43:20;5.43;;;3.30;;
30892;SDS011;17595;50.884;4.346;2022-12-19T16:45:53;5.15;;;2.80;;
30892;SDS011;17595;50.884;4.346;2022-12-19T16:48:19;6.03;;;3.53;;
30892;SDS011;17595;50.884;4.346;2022-12-19T16:50:47;6.85;;;3.40;;
30892;SDS011;17595;50.884;4.346;2022-12-19T16:53:13;7.57;;;4.10;;
30892;SDS011;17595;50.884;4.346;2022-12-19T16:55:39;5.63;;;3.28;;
30892;SDS011;17595;50.884;4.346;2022-12-19T16:58:07;8.73;;;3.83;;
30892;SDS011;17595;50.884;4.346;2022-12-19T17:00:42;5.13;;;2.65;;
30892;SDS011;17595;50.884;4.346;2022-12-19T17:03:24;6.70;;;3.95;;
30892;SDS011;17595;50.884;4.346;2022-12-19T17:05:51;3.92;;;3.20;;
30892;SDS011;17595;50.884;4.346;2022-12-19T17:08:17;4.90;;;3.20;;
30892;SDS011;17595;50.884;4.346;2022-12-19T17:10:44;3.63;;;2.95;;
30892;SDS011;17595;50.884;4.346;2022-12-19T17:13:11;4.30;;;2.95;;
30892;SDS011;17595;50.884;4.346;2022-12-19T17:15:38;4.90;;;2.80;;
30892;SDS011;17595;50.884;4.346;2022-12-19T17:18:09;4.75;;;3.42;;
30892;SDS011;17595;50.884;4.346;2022-12-19T17:20:38;4.75;;;2.90;;
30892;SDS011;17595;50.884;4.346;2022-12-19T17:23:15;4.60;;;3.35;;
30892;SDS011;17595;50.884;4.346;2022-12-19T17:25:42;5.75;;;3.97;;
30892;SDS011;17595;50.884;4.346;2022-12-19T17:28:08;10.27;;;6.15;;
30892;SDS011;17595;50.884;4.346;2022-12-19T17:30:34;6.43;;;4.90;;
30892;SDS011;17595;50.884;4.346;2022-12-19T17:33:00;12.80;;;6.97;;
30892;SDS011;17595;50.884;4.346;2022-12-19T17:35:27;10.25;;;6.65;;
30892;SDS011;17595;50.884;4.346;2022-12-19T17:37:58;11.18;;;6.03;;
30892;SDS011;17595;50.884;4.346;2022-12-19T17:40:25;10.68;;;5.22;;